Ocean Tower — WDE4689 — position and weather

sailwx.info

Track history (hours):
 
Tides and Currents Weather Stations Pressure Air Temp Water Temp Dewpoint Dewpoint Depression Visibility Wind Speed Wind Dir Waves Ship Positions

Ocean Tower

Owner: Tug Ocean Tower, Tampa, FL. More information available from US FCC via Universal Licensing System and Coast Guard Vessel Documentation Center.

Last reported at 2017-Sep-26 18:00 UTC. Time now 2017-Sep-26 18:30 UTC.
Position N 42°20' W 070°57'.

Length 34 m; draft 4.1 m.

Type: Towing. MMSI: 367356580.

Date/timePositionNaut miles runAvg speedWind from/ knotsBaromVisibWave heightAir tempDewpointWater temp
2017-Sep-26 18:00N 42°20' W 070°57'4 7.5
2017-Sep-26 17:30N 42°23' W 070°53'5 9.0
2017-Sep-26 17:00N 42°24' W 070°47'4 8.8
2017-Sep-26 16:30N 42°25' W 070°41'4 8.0
2017-Sep-26 16:00N 42°26' W 070°36'1 1.2
2017-Sep-26 15:31N 42°26' W 070°37'3 5.7
2017-Sep-26 15:00N 42°25' W 070°40'4 7.0
2017-Sep-26 14:30N 42°24' W 070°45'4 7.1
2017-Sep-26 14:00N 42°23' W 070°50'4 7.2
2017-Sep-26 13:30N 42°22' W 070°54'3 6.9
2017-Sep-26 13:00N 42°20' W 070°58'3 6.0
2017-Sep-26 12:30N 42°21' W 071°02'2 3.5
2017-Sep-26 12:01N 42°23' W 071°03'0 0.2
2017-Sep-26 11:30N 42°23' W 071°03'2 3.9
2017-Sep-26 11:00N 42°21' W 071°01'2 4.7
2017-Sep-26 10:30N 42°20' W 070°59'0 0.2
2017-Sep-26 10:00N 42°20' W 070°58'2 3.4
2017-Sep-26 09:31N 42°21' W 070°56'4 7.3
2017-Sep-26 09:00N 42°23' W 070°52'5 9.0
2017-Sep-26 08:30N 42°24' W 070°46'5 9.6
2017-Sep-26 08:00N 42°25' W 070°40'3 6.8
2017-Sep-26 07:30N 42°26' W 070°35'1 2.8
2017-Sep-26 07:00N 42°26' W 070°37'3 6.5
2017-Sep-26 06:30N 42°25' W 070°42'4 7.1
2017-Sep-26 06:01N 42°24' W 070°46'4 7.3
2017-Sep-26 05:31N 42°23' W 070°51'3 6.5
2017-Sep-26 05:00N 42°22' W 070°55'3 5.1
2017-Sep-26 04:30N 42°20' W 070°57'3 5.1
2017-Sep-26 04:00N 42°21' W 071°01'2 4.5
2017-Sep-26 03:30N 42°22' W 071°03'1 1.1
2017-Sep-26 03:01N 42°23' W 071°03'0 0.8
2017-Sep-26 02:30N 42°22' W 071°03'0 0.7
2017-Sep-26 02:00N 42°22' W 071°03'4 7.8
2017-Sep-26 01:31N 42°20' W 070°58'2 3.2
2017-Sep-26 01:00N 42°21' W 070°56'3 6.4
2017-Sep-26 00:30N 42°23' W 070°53'4 8.8
2017-Sep-26 00:00N 42°24' W 070°47'5 9.3
2017-Sep-25 23:30N 42°25' W 070°41'4 8.8
2017-Sep-25 23:00N 42°26' W 070°35'0 1.0
2017-Sep-25 22:30N 42°26' W 070°36'2 3.7
2017-Sep-25 22:00N 42°26' W 070°39'4 7.3
2017-Sep-25 21:30N 42°25' W 070°43'4 7.1
2017-Sep-25 21:00N 42°24' W 070°48'4 7.2
2017-Sep-25 20:30N 42°23' W 070°53'3 6.6
2017-Sep-25 20:00N 42°21' W 070°56'3 5.8
2017-Sep-25 19:30N 42°20' W 071°00'3 5.7
2017-Sep-25 19:00N 42°22' W 071°03'1 1.2
2017-Sep-25 18:30N 42°23' W 071°03'0 0.8
2017-Sep-25 18:00N 42°22' W 071°03'0 0.0
2017-Sep-25 17:30N 42°22' W 071°03'1 1.7
2017-Sep-25 17:00N 42°22' W 071°02'3 6.7
2017-Sep-25 16:30N 42°20' W 070°58'4 7.4
2017-Sep-25 16:00N 42°22' W 070°54'5 9.6
2017-Sep-25 15:30N 42°24' W 070°48'5 9.7
2017-Sep-25 15:00N 42°25' W 070°42'4 9.0
2017-Sep-25 14:30N 42°25' W 070°36'1 1.3
2017-Sep-25 14:00N 42°26' W 070°36'3 5.4
2017-Sep-25 13:30N 42°25' W 070°39'4 7.2
2017-Sep-25 13:00N 42°24' W 070°44'4 7.3
2017-Sep-25 12:30N 42°23' W 070°49'4 7.5
2017-Sep-25 12:00N 42°22' W 070°54'4 7.3
2017-Sep-25 11:30N 42°20' W 070°58'3 6.0
2017-Sep-25 11:00N 42°21' W 071°01'2 3.9
2017-Sep-25 10:30N 42°23' W 071°03'0 0.5
2017-Sep-25 10:00N 42°22' W 071°03'0 0.1
2017-Sep-25 09:30N 42°22' W 071°03'0 0.0
2017-Sep-25 09:00N 42°22' W 071°03'1 3.0
2017-Sep-25 08:30N 42°21' W 071°02'3 5.3
2017-Sep-25 08:01N 42°20' W 070°58'2 4.9
2017-Sep-25 07:30N 42°22' W 070°56'4 8.0
2017-Sep-25 07:00N 42°23' W 070°51'5 9.5
2017-Sep-25 06:30N 42°24' W 070°44'5 9.5
2017-Sep-25 06:00N 42°26' W 070°38'2 4.6
2017-Sep-25 05:30N 42°26' W 070°35'2 3.2
2017-Sep-25 05:00N 42°26' W 070°37'3 6.6
2017-Sep-25 04:30N 42°25' W 070°42'3 6.5
2017-Sep-25 04:00N 42°24' W 070°46'3 6.6
2017-Sep-25 03:30N 42°23' W 070°50'3 6.4
2017-Sep-25 03:00N 42°22' W 070°54'2 3.9
2017-Sep-25 02:30N 42°21' W 070°56'3 5.1
2017-Sep-25 02:00N 42°20' W 070°59'3 5.7
2017-Sep-25 01:30N 42°22' W 071°02'1 2.2
2017-Sep-25 01:00N 42°23' W 071°03'0 0.3
2017-Sep-25 00:30N 42°23' W 071°03'0 1.0
2017-Sep-25 00:00N 42°22' W 071°03'0 0.0
2017-Sep-24 23:30N 42°22' W 071°03'0 0.0
2017-Sep-24 23:00N 42°22' W 071°03'0 0.0
2017-Sep-24 22:30N 42°22' W 071°03'0 0.0
2017-Sep-24 22:00N 42°22' W 071°03'0 0.0
2017-Sep-24 21:30N 42°22' W 071°03'3 5.3
2017-Sep-24 21:00N 42°20' W 071°00'2 3.1
2017-Sep-24 20:30N 42°20' W 070°58'4 7.0
2017-Sep-24 20:00N 42°22' W 070°54'5 9.3
2017-Sep-24 19:30N 42°23' W 070°48'5 9.2
2017-Sep-24 19:00N 42°25' W 070°42'5 9.4
2017-Sep-24 18:30N 42°26' W 070°36'0 0.6
2017-Sep-24 18:00N 42°26' W 070°36'1 2.6
2017-Sep-24 17:30N 42°26' W 070°38'3 7.0
2017-Sep-24 17:00N 42°25' W 070°42'4 7.0
2017-Sep-24 16:30N 42°24' W 070°47'4 7.0
2017-Sep-24 16:00N 42°23' W 070°51'3 6.1
2017-Sep-24 15:30N 42°22' W 070°55'3 5.6
2017-Sep-24 15:00N 42°20' W 070°58'3 5.7
2017-Sep-24 14:30N 42°21' W 071°02'1 1.2
2017-Sep-24 14:00N 42°21' W 071°02'1 2.5
2017-Sep-24 13:30N 42°23' W 071°03'0 0.8
2017-Sep-24 13:00N 42°22' W 071°03'4 7.5
2017-Sep-24 12:30N 42°20' W 070°59'2 3.9
2017-Sep-24 12:01N 42°21' W 070°56'4 7.6
2017-Sep-24 11:30N 42°23' W 070°52'4 8.5
2017-Sep-24 11:00N 42°24' W 070°46'4 8.1
2017-Sep-24 10:30N 42°25' W 070°41'4 8.3
2017-Sep-24 10:00N 42°25' W 070°35'1 1.5
2017-Sep-24 09:30N 42°26' W 070°36'2 3.8
2017-Sep-24 09:00N 42°26' W 070°39'3 6.4
2017-Sep-24 08:30N 42°24' W 070°43'3 6.3
2017-Sep-24 08:00N 42°24' W 070°47'3 6.2
2017-Sep-24 07:30N 42°23' W 070°51'3 5.6
2017-Sep-24 07:00N 42°22' W 070°55'2 4.5
2017-Sep-24 06:31N 42°21' W 070°56'3 5.1
2017-Sep-24 06:00N 42°20' W 070°60'3 5.5
2017-Sep-24 05:30N 42°22' W 071°03'1 1.5
2017-Sep-24 05:00N 42°23' W 071°03'0 0.5
2017-Sep-24 04:30N 42°22' W 071°03'3 6.7
2017-Sep-24 04:00N 42°20' W 070°60'2 3.2
2017-Sep-24 03:30N 42°20' W 070°57'3 6.5
2017-Sep-24 03:00N 42°22' W 070°54'4 7.6
2017-Sep-24 02:30N 42°23' W 070°49'4 7.7
2017-Sep-24 02:00N 42°25' W 070°44'4 7.5
2017-Sep-24 01:30N 42°25' W 070°39'3 6.3
2017-Sep-24 01:00N 42°26' W 070°35'1 2.3
2017-Sep-24 00:30N 42°26' W 070°37'3 5.1
2017-Sep-24 00:00N 42°25' W 070°40'3 6.7
2017-Sep-23 23:30N 42°24' W 070°44'3 6.7
2017-Sep-23 23:00N 42°23' W 070°49'3 6.8
2017-Sep-23 22:30N 42°23' W 070°53'3 6.7
2017-Sep-23 22:00N 42°20' W 070°56'3 6.4
2017-Sep-23 21:30N 42°21' W 071°01'2 4.0
2017-Sep-23 21:01N 42°22' W 071°03'1 1.5
2017-Sep-23 20:30N 42°23' W 071°03'0 0.9
2017-Sep-23 20:00N 42°22' W 071°03'0 0.0
2017-Sep-22 02:00N 42°22' W 071°03'0 0.0
2017-Sep-22 01:30N 42°22' W 071°03'0 0.0
2017-Sep-22 01:00N 42°22' W 071°03'0 0.4
2017-Sep-22 00:31N 42°23' W 071°03'0 0.0
2017-Sep-22 00:00N 42°23' W 071°03'0 0.0
2017-Sep-21 23:30N 42°23' W 071°03'0 0.0
2017-Sep-21 23:00N 42°23' W 071°03'0 0.0
2017-Sep-21 22:30N 42°23' W 071°03'0 0.0
2017-Sep-21 22:00N 42°23' W 071°03'0 0.1
2017-Sep-21 21:30N 42°23' W 071°03'0 0.0
2017-Sep-21 21:01N 42°23' W 071°03'0 0.0
2017-Sep-21 20:30N 42°23' W 071°03'0 0.1
2017-Sep-21 20:00N 42°22' W 071°03'0 0.0
2017-Sep-21 19:30N 42°22' W 071°03'0 0.0
2017-Sep-21 19:00N 42°22' W 071°03'0 0.0
2017-Sep-21 18:30N 42°22' W 071°03'0 0.0
2017-Sep-21 18:00N 42°22' W 071°03'0 0.0
2017-Sep-21 17:30N 42°22' W 071°03'0 0.0
2017-Sep-21 17:00N 42°22' W 071°03'0 0.0
2017-Sep-21 16:30N 42°22' W 071°03'0 0.0
2017-Sep-21 16:00N 42°22' W 071°03'0 0.2
2017-Sep-21 15:30N 42°22' W 071°03'0 0.2
2017-Sep-21 15:00N 42°22' W 071°03'0 0.0
2017-Sep-21 14:30N 42°22' W 071°03'0 0.0
2017-Sep-21 14:00N 42°22' W 071°03'0 0.0
2017-Sep-21 13:30N 42°22' W 071°03'0 0.0
2017-Sep-21 13:00N 42°22' W 071°03'0 0.0
2017-Sep-21 12:30N 42°22' W 071°03'0 0.0
2017-Sep-21 12:00N 42°22' W 071°03'0 0.0
2017-Sep-21 11:30N 42°22' W 071°03'0 0.0
2017-Sep-21 11:00N 42°22' W 071°03'0 0.0
2017-Sep-21 10:30N 42°22' W 071°03'0 0.0
2017-Sep-21 10:00N 42°22' W 071°03'0 0.0
2017-Sep-21 09:30N 42°22' W 071°03'0 0.0
2017-Sep-21 09:00N 42°22' W 071°03'0 0.0
2017-Sep-21 08:30N 42°22' W 071°03'0 0.0
2017-Sep-21 08:00N 42°22' W 071°03'0 0.0
2017-Sep-21 07:30N 42°22' W 071°03'0 0.0
2017-Sep-21 07:00N 42°22' W 071°03'0 0.0
2017-Sep-21 06:30N 42°22' W 071°03'0 0.0
2017-Sep-21 06:00N 42°22' W 071°03'0 0.0
2017-Sep-21 05:30N 42°22' W 071°03'0 0.0
2017-Sep-21 05:00N 42°22' W 071°03'0 0.0
2017-Sep-21 04:30N 42°22' W 071°03'0 0.0
2017-Sep-21 04:00N 42°22' W 071°03'0 0.0
2017-Sep-21 03:30N 42°22' W 071°03'0 0.0
2017-Sep-21 03:00N 42°22' W 071°03'0 0.0
2017-Sep-21 02:30N 42°22' W 071°03'0 0.0
2017-Sep-21 02:00N 42°22' W 071°03'0 0.0
2017-Sep-21 01:30N 42°22' W 071°03'0 0.0
2017-Sep-21 01:00N 42°22' W 071°03'0 0.0
2017-Sep-21 00:30N 42°22' W 071°03'0 0.0
2017-Sep-21 00:00N 42°22' W 071°03'0 0.0
2017-Sep-20 23:30N 42°22' W 071°03'0 0.0
2017-Sep-20 23:00N 42°22' W 071°03'0 0.0
2017-Sep-20 22:30N 42°22' W 071°03'0 0.0
2017-Sep-20 22:00N 42°22' W 071°03'0 0.0
2017-Sep-20 21:30N 42°22' W 071°03'0 0.0
2017-Sep-20 21:00N 42°22' W 071°03'0 0.0
2017-Sep-20 20:30N 42°22' W 071°03'0 0.0
2017-Sep-20 20:00N 42°22' W 071°03'0 0.0
2017-Sep-20 19:30N 42°22' W 071°03'0 0.0
2017-Sep-20 19:00N 42°22' W 071°03'0 0.0
2017-Sep-20 18:30N 42°22' W 071°03'0 0.2
2017-Sep-20 18:00N 42°22' W 071°03'0 0.0
2017-Sep-20 17:30N 42°22' W 071°03'0 0.0
2017-Sep-20 17:00N 42°22' W 071°03'0 0.0
2017-Sep-20 16:30N 42°22' W 071°03'0 0.0
2017-Sep-20 16:00N 42°22' W 071°03'0 0.0
2017-Sep-20 15:30N 42°22' W 071°03'0 0.0
2017-Sep-20 15:00N 42°22' W 071°03'0 0.0
2017-Sep-20 14:00N 42°22' W 071°03'0 0.0
2017-Sep-20 13:30N 42°22' W 071°03'0 0.0
2017-Sep-20 13:00N 42°22' W 071°03'0 0.0
2017-Sep-20 12:30N 42°22' W 071°03'0 0.0
2017-Sep-20 12:00N 42°22' W 071°03'0 0.0
2017-Sep-20 11:30N 42°22' W 071°03'0 0.3
2017-Sep-20 11:00N 42°23' W 071°03'0 0.0
2017-Sep-20 10:30N 42°23' W 071°03'0 0.0
2017-Sep-20 10:01N 42°23' W 071°03'0 0.0
2017-Sep-20 09:31N 42°23' W 071°03'0 0.0
2017-Sep-20 09:00N 42°23' W 071°03'0 0.0
2017-Sep-20 08:30N 42°23' W 071°03'0 0.0
2017-Sep-20 08:00N 42°23' W 071°03'0 0.0
2017-Sep-20 07:30N 42°23' W 071°03'0 0.0
2017-Sep-20 07:00N 42°23' W 071°03'0 0.0
2017-Sep-20 06:30N 42°23' W 071°03'0 0.0
2017-Sep-20 06:00N 42°23' W 071°03'0 0.0
2017-Sep-20 05:30N 42°23' W 071°03'0 0.0
2017-Sep-20 05:00N 42°23' W 071°03'0 0.6
2017-Sep-20 04:30N 42°23' W 071°03'0 0.0
2017-Sep-20 04:00N 42°23' W 071°03'0 0.0
2017-Sep-20 03:30N 42°23' W 071°03'0 0.0
2017-Sep-20 03:00N 42°23' W 071°03'0 0.0
2017-Sep-20 02:30N 42°23' W 071°03'0 0.5
2017-Sep-20 02:01N 42°23' W 071°03'0 0.1
2017-Sep-20 01:30N 42°23' W 071°03'0 0.0
2017-Sep-20 01:00N 42°23' W 071°03'0 0.0
2017-Sep-20 00:30N 42°23' W 071°03'0 0.0
2017-Sep-20 00:00N 42°23' W 071°03'0 0.0
2017-Sep-19 23:30N 42°23' W 071°03'0 0.0
2017-Sep-19 23:00N 42°23' W 071°03'0 0.0
2017-Sep-19 22:30N 42°23' W 071°03'0 0.0
2017-Sep-19 22:00N 42°23' W 071°03'1 1.1
2017-Sep-19 21:30N 42°23' W 071°03'0 0.0
2017-Sep-19 21:00N 42°23' W 071°03'0 0.0
2017-Sep-19 20:30N 42°23' W 071°03'0 0.0
2017-Sep-19 20:00N 42°23' W 071°03'0 0.0
2017-Sep-19 19:30N 42°23' W 071°03'0 0.0
2017-Sep-19 19:00N 42°23' W 071°03'0 0.0
2017-Sep-19 18:31N 42°23' W 071°03'0 0.0
2017-Sep-19 18:00N 42°23' W 071°03'0 0.0
2017-Sep-19 17:30N 42°23' W 071°03'0 0.0
2017-Sep-19 17:00N 42°23' W 071°03'0 0.0
2017-Sep-19 16:30N 42°23' W 071°03'0 0.0
2017-Sep-19 16:00N 42°23' W 071°03'0 0.0
2017-Sep-19 15:30N 42°23' W 071°03'0 0.0
2017-Sep-19 15:00N 42°23' W 071°03'0 0.4
2017-Sep-19 14:30N 42°22' W 071°03'0 0.0
2017-Sep-19 14:00N 42°22' W 071°03'0 0.0
2017-Sep-19 13:30N 42°22' W 071°03'0 0.0
2017-Sep-19 13:00N 42°22' W 071°03'0 0.0
2017-Sep-19 12:30N 42°22' W 071°03'0 0.4
2017-Sep-19 12:00N 42°23' W 071°03'0 0.3
2017-Sep-19 11:30N 42°23' W 071°03'0 0.6
2017-Sep-19 11:01N 42°22' W 071°03'0 0.7
2017-Sep-19 10:30N 42°22' W 071°03'4 7.8
2017-Sep-19 10:00N 42°20' W 070°58'1 3.0
2017-Sep-19 09:30N 42°21' W 070°56'3 7.0
2017-Sep-19 09:00N 42°23' W 070°53'5 9.3
2017-Sep-19 08:30N 42°24' W 070°46'5 9.4
2017-Sep-19 08:00N 42°25' W 070°40'4 8.2
2017-Sep-19 07:30N 42°26' W 070°35'1 2.4
2017-Sep-19 07:00N 42°26' W 070°36'3 6.1
2017-Sep-19 06:31N 42°25' W 070°40'4 7.7
2017-Sep-19 06:00N 42°24' W 070°45'4 7.6
2017-Sep-19 05:30N 42°23' W 070°50'3 7.0
2017-Sep-19 05:00N 42°22' W 070°55'3 6.9
2017-Sep-19 04:30N 42°20' W 070°59'3 6.8
2017-Sep-19 04:00N 42°22' W 071°03'1 2.0
2017-Sep-19 03:30N 42°23' W 071°03'0 0.4
2017-Sep-19 03:00N 42°22' W 071°03'4 7.1
2017-Sep-19 02:30N 42°20' W 070°59'2 3.9
2017-Sep-19 02:00N 42°20' W 070°57'4 8.6
2017-Sep-19 01:30N 42°23' W 070°52'5 9.4
2017-Sep-19 01:00N 42°24' W 070°46'5 9.6
2017-Sep-19 00:30N 42°25' W 070°39'3 6.4
2017-Sep-19 00:00N 42°26' W 070°35'1 2.1
2017-Sep-18 23:30N 42°26' W 070°37'2 3.6
2017-Sep-18 23:00N 42°25' W 070°39'4 7.3
2017-Sep-18 22:30N 42°24' W 070°44'4 7.1
2017-Sep-18 22:00N 42°23' W 070°48'4 7.1
2017-Sep-18 21:30N 42°23' W 070°53'3 5.6
2017-Sep-18 21:00N 42°21' W 070°56'3 5.8
2017-Sep-18 20:30N 42°20' W 070°60'3 5.9
2017-Sep-18 20:00N 42°22' W 071°03'1 1.2
2017-Sep-18 19:30N 42°23' W 071°03'0 0.7
2017-Sep-18 19:00N 42°22' W 071°03'0 0.0
2017-Sep-18 18:30N 42°22' W 071°03'0 0.0
2017-Sep-18 18:00N 42°22' W 071°03'1 1.3
2017-Sep-18 17:31N 42°22' W 071°03'4 7.1
2017-Sep-18 17:00N 42°20' W 070°58'2 3.7
2017-Sep-18 16:30N 42°21' W 070°56'4 7.8
2017-Sep-18 16:00N 42°24' W 070°53'2 3.7
2017-Sep-18 15:30N 42°26' W 070°52'2 3.8
2017-Sep-18 15:00N 42°24' W 070°53'2 3.1
2017-Sep-18 14:31N 42°23' W 070°53'4 7.3
2017-Sep-18 14:00N 42°23' W 070°48'5 9.7
2017-Sep-18 13:30N 42°25' W 070°42'5 9.5
2017-Sep-18 13:00N 42°25' W 070°35'1 1.1
2017-Sep-18 12:30N 42°26' W 070°35'1 2.5
2017-Sep-18 12:00N 42°26' W 070°37'4 7.1
2017-Sep-18 11:30N 42°25' W 070°42'4 7.3
2017-Sep-18 11:00N 42°24' W 070°47'4 7.3
2017-Sep-18 10:30N 42°23' W 070°51'3 6.5
2017-Sep-18 10:00N 42°22' W 070°55'3 5.2
2017-Sep-18 09:30N 42°20' W 070°58'3 5.6
2017-Sep-18 09:00N 42°21' W 071°02'2 3.7
2017-Sep-18 08:30N 42°23' W 071°03'0 0.4
2017-Sep-18 08:01N 42°23' W 071°03'2 4.3
2017-Sep-18 07:31N 42°21' W 071°01'3 5.4
2017-Sep-18 07:00N 42°20' W 070°58'1 2.1
2017-Sep-18 06:30N 42°21' W 070°56'4 7.4
2017-Sep-18 06:01N 42°23' W 070°52'5 9.1
2017-Sep-18 05:30N 42°24' W 070°46'5 9.0
2017-Sep-18 05:00N 42°25' W 070°40'4 8.0
2017-Sep-18 04:30N 42°26' W 070°35'1 1.2
2017-Sep-18 04:00N 42°26' W 070°36'3 5.0
2017-Sep-18 03:30N 42°25' W 070°39'4 7.7
2017-Sep-18 03:00N 42°24' W 070°44'4 7.6
2017-Sep-18 02:30N 42°23' W 070°49'4 7.3
2017-Sep-18 02:00N 42°22' W 070°54'3 6.7
2017-Sep-18 01:30N 42°20' W 070°57'3 6.3
2017-Sep-18 01:00N 42°21' W 071°01'2 3.6
2017-Sep-18 00:30N 42°23' W 071°03'0 0.3
2017-Sep-18 00:00N 42°22' W 071°03'0 0.0
2017-Sep-17 23:30N 42°22' W 071°03'0 0.0
2017-Sep-17 23:00N 42°22' W 071°03'0 0.0
2017-Sep-17 22:30N 42°22' W 071°03'0 0.0
2017-Sep-17 22:00N 42°22' W 071°03'0 0.0
2017-Sep-17 21:30N 42°22' W 071°03'0 0.0
2017-Sep-17 21:00N 42°22' W 071°03'0 0.0
2017-Sep-17 20:30N 42°22' W 071°03'0 0.0
2017-Sep-17 20:00N 42°22' W 071°03'0 0.0
2017-Sep-17 19:30N 42°22' W 071°03'3 5.5
2017-Sep-17 19:00N 42°20' W 071°00'2 4.8
2017-Sep-17 18:30N 42°20' W 070°57'4 7.9
2017-Sep-17 18:00N 42°23' W 070°53'5 9.2
2017-Sep-17 17:30N 42°24' W 070°47'5 9.2
2017-Sep-17 17:00N 42°25' W 070°41'4 8.3
2017-Sep-17 16:30N 42°25' W 070°35'1 2.0
2017-Sep-17 16:00N 42°26' W 070°35'3 5.3
2017-Sep-17 15:30N 42°25' W 070°39'4 7.9
2017-Sep-17 15:00N 42°24' W 070°44'4 8.0
2017-Sep-17 14:30N 42°23' W 070°49'4 7.5
2017-Sep-17 14:00N 42°22' W 070°54'3 6.2
2017-Sep-17 13:30N 42°20' W 070°57'3 5.5
2017-Sep-17 13:01N 42°21' W 071°01'2 4.3
2017-Sep-17 12:30N 42°22' W 071°03'0 0.8
2017-Sep-17 12:01N 42°23' W 071°03'0 0.8
2017-Sep-17 11:30N 42°22' W 071°03'0 0.0
2017-Sep-17 11:00N 42°22' W 071°03'0 0.0
2017-Sep-17 10:30N 42°22' W 071°03'0 0.0
2017-Sep-17 10:00N 42°22' W 071°03'0 0.0
2017-Sep-17 09:30N 42°22' W 071°03'0 0.0
2017-Sep-17 09:01N 42°22' W 071°03'2 3.7
2017-Sep-17 08:30N 42°21' W 071°01'2 4.7
2017-Sep-17 08:00N 42°20' W 070°58'1 2.3
2017-Sep-17 07:30N 42°20' W 070°57'3 5.1
2017-Sep-17 07:00N 42°22' W 070°54'4 9.0
2017-Sep-17 06:30N 42°23' W 070°49'5 9.2
2017-Sep-17 05:59N 42°25' W 070°42'4 9.1
2017-Sep-17 05:30N 42°26' W 070°36'1 1.5
2017-Sep-17 05:00N 42°26' W 070°35'2 4.4
2017-Sep-17 04:30N 42°25' W 070°38'4 7.8
2017-Sep-17 04:00N 42°24' W 070°43'4 7.8
2017-Sep-17 03:30N 42°23' W 070°49'3 6.9
2017-Sep-17 03:00N 42°23' W 070°53'3 6.3
2017-Sep-17 02:30N 42°20' W 070°56'3 6.3
2017-Sep-17 02:00N 42°20' W 071°01'2 4.7
2017-Sep-17 01:30N 42°22' W 071°03'1 1.3
2017-Sep-17 01:00N 42°23' W 071°03'0 0.8
2017-Sep-17 00:30N 42°22' W 071°03'0 0.0
2017-Sep-17 00:00N 42°22' W 071°03'0 0.0
2017-Sep-16 23:30N 42°22' W 071°03'0 0.0
2017-Sep-16 23:00N 42°22' W 071°03'0 0.7
2017-Sep-16 22:31N 42°23' W 071°03'0 0.2
2017-Sep-16 22:00N 42°23' W 071°03'0 0.7
2017-Sep-16 21:30N 42°22' W 071°03'0 0.0
2017-Sep-16 21:00N 42°22' W 071°03'0 0.0
2017-Sep-16 20:30N 42°22' W 071°03'0 0.0
2017-Sep-16 20:00N 42°22' W 071°03'0 0.6
2017-Sep-16 19:31N 42°23' W 071°03'0 0.1
2017-Sep-16 19:00N 42°23' W 071°03'0 0.7
2017-Sep-16 18:30N 42°22' W 071°03'  
Track history (hours):
 
Tides and Currents Weather Stations Pressure Air Temp Water Temp Dewpoint Dewpoint Depression Visibility Wind Speed Wind Dir Waves Ship Positions

Ocean Tower

Owner: Tug Ocean Tower, Tampa, FL. More information available from US FCC via Universal Licensing System and Coast Guard Vessel Documentation Center.

Last reported at 2017-Sep-26 18:00 UTC. Time now 2017-Sep-26 18:30 UTC.
Position N 42°20' W 070°57'.

Length 34 m; draft 4.1 m.

Type: Towing. MMSI: 367356580.

Date/timePositionNaut miles runAvg speedWind from/ knotsBaromVisibWave heightAir tempDewpointWater temp
2017-Sep-26 18:00N 42°20' W 070°57'4 7.5
2017-Sep-26 17:30N 42°23' W 070°53'5 9.0
2017-Sep-26 17:00N 42°24' W 070°47'4 8.8
2017-Sep-26 16:30N 42°25' W 070°41'4 8.0
2017-Sep-26 16:00N 42°26' W 070°36'1 1.2
2017-Sep-26 15:31N 42°26' W 070°37'3 5.7
2017-Sep-26 15:00N 42°25' W 070°40'4 7.0
2017-Sep-26 14:30N 42°24' W 070°45'4 7.1
2017-Sep-26 14:00N 42°23' W 070°50'4 7.2
2017-Sep-26 13:30N 42°22' W 070°54'3 6.9
2017-Sep-26 13:00N 42°20' W 070°58'3 6.0
2017-Sep-26 12:30N 42°21' W 071°02'2 3.5
2017-Sep-26 12:01N 42°23' W 071°03'0 0.2
2017-Sep-26 11:30N 42°23' W 071°03'2 3.9
2017-Sep-26 11:00N 42°21' W 071°01'2 4.7
2017-Sep-26 10:30N 42°20' W 070°59'0 0.2
2017-Sep-26 10:00N 42°20' W 070°58'2 3.4
2017-Sep-26 09:31N 42°21' W 070°56'4 7.3
2017-Sep-26 09:00N 42°23' W 070°52'5 9.0
2017-Sep-26 08:30N 42°24' W 070°46'5 9.6
2017-Sep-26 08:00N 42°25' W 070°40'3 6.8
2017-Sep-26 07:30N 42°26' W 070°35'1 2.8
2017-Sep-26 07:00N 42°26' W 070°37'3 6.5
2017-Sep-26 06:30N 42°25' W 070°42'4 7.1
2017-Sep-26 06:01N 42°24' W 070°46'4 7.3
2017-Sep-26 05:31N 42°23' W 070°51'3 6.5
2017-Sep-26 05:00N 42°22' W 070°55'3 5.1
2017-Sep-26 04:30N 42°20' W 070°57'3 5.1
2017-Sep-26 04:00N 42°21' W 071°01'2 4.5
2017-Sep-26 03:30N 42°22' W 071°03'1 1.1
2017-Sep-26 03:01N 42°23' W 071°03'0 0.8
2017-Sep-26 02:30N 42°22' W 071°03'0 0.7
2017-Sep-26 02:00N 42°22' W 071°03'4 7.8
2017-Sep-26 01:31N 42°20' W 070°58'2 3.2
2017-Sep-26 01:00N 42°21' W 070°56'3 6.4
2017-Sep-26 00:30N 42°23' W 070°53'4 8.8
2017-Sep-26 00:00N 42°24' W 070°47'5 9.3
2017-Sep-25 23:30N 42°25' W 070°41'4 8.8
2017-Sep-25 23:00N 42°26' W 070°35'0 1.0
2017-Sep-25 22:30N 42°26' W 070°36'2 3.7
2017-Sep-25 22:00N 42°26' W 070°39'4 7.3
2017-Sep-25 21:30N 42°25' W 070°43'4 7.1
2017-Sep-25 21:00N 42°24' W 070°48'4 7.2
2017-Sep-25 20:30N 42°23' W 070°53'3 6.6
2017-Sep-25 20:00N 42°21' W 070°56'3 5.8
2017-Sep-25 19:30N 42°20' W 071°00'3 5.7
2017-Sep-25 19:00N 42°22' W 071°03'1 1.2
2017-Sep-25 18:30N 42°23' W 071°03'0 0.8
2017-Sep-25 18:00N 42°22' W 071°03'0 0.0
2017-Sep-25 17:30N 42°22' W 071°03'1 1.7
2017-Sep-25 17:00N 42°22' W 071°02'3 6.7
2017-Sep-25 16:30N 42°20' W 070°58'4 7.4
2017-Sep-25 16:00N 42°22' W 070°54'5 9.6
2017-Sep-25 15:30N 42°24' W 070°48'5 9.7
2017-Sep-25 15:00N 42°25' W 070°42'4 9.0
2017-Sep-25 14:30N 42°25' W 070°36'1 1.3
2017-Sep-25 14:00N 42°26' W 070°36'3 5.4
2017-Sep-25 13:30N 42°25' W 070°39'4 7.2
2017-Sep-25 13:00N 42°24' W 070°44'4 7.3
2017-Sep-25 12:30N 42°23' W 070°49'4 7.5
2017-Sep-25 12:00N 42°22' W 070°54'4 7.3
2017-Sep-25 11:30N 42°20' W 070°58'3 6.0
2017-Sep-25 11:00N 42°21' W 071°01'2 3.9
2017-Sep-25 10:30N 42°23' W 071°03'0 0.5
2017-Sep-25 10:00N 42°22' W 071°03'0 0.1
2017-Sep-25 09:30N 42°22' W 071°03'0 0.0
2017-Sep-25 09:00N 42°22' W 071°03'1 3.0
2017-Sep-25 08:30N 42°21' W 071°02'3 5.3
2017-Sep-25 08:01N 42°20' W 070°58'2 4.9
2017-Sep-25 07:30N 42°22' W 070°56'4 8.0
2017-Sep-25 07:00N 42°23' W 070°51'5 9.5
2017-Sep-25 06:30N 42°24' W 070°44'5 9.5
2017-Sep-25 06:00N 42°26' W 070°38'2 4.6
2017-Sep-25 05:30N 42°26' W 070°35'2 3.2
2017-Sep-25 05:00N 42°26' W 070°37'3 6.6
2017-Sep-25 04:30N 42°25' W 070°42'3 6.5
2017-Sep-25 04:00N 42°24' W 070°46'3 6.6
2017-Sep-25 03:30N 42°23' W 070°50'3 6.4
2017-Sep-25 03:00N 42°22' W 070°54'2 3.9
2017-Sep-25 02:30N 42°21' W 070°56'3 5.1
2017-Sep-25 02:00N 42°20' W 070°59'3 5.7
2017-Sep-25 01:30N 42°22' W 071°02'1 2.2
2017-Sep-25 01:00N 42°23' W 071°03'0 0.3
2017-Sep-25 00:30N 42°23' W 071°03'0 1.0
2017-Sep-25 00:00N 42°22' W 071°03'0 0.0
2017-Sep-24 23:30N 42°22' W 071°03'0 0.0
2017-Sep-24 23:00N 42°22' W 071°03'0 0.0
2017-Sep-24 22:30N 42°22' W 071°03'0 0.0
2017-Sep-24 22:00N 42°22' W 071°03'0 0.0
2017-Sep-24 21:30N 42°22' W 071°03'3 5.3
2017-Sep-24 21:00N 42°20' W 071°00'2 3.1
2017-Sep-24 20:30N 42°20' W 070°58'4 7.0
2017-Sep-24 20:00N 42°22' W 070°54'5 9.3
2017-Sep-24 19:30N 42°23' W 070°48'5 9.2
2017-Sep-24 19:00N 42°25' W 070°42'5 9.4
2017-Sep-24 18:30N 42°26' W 070°36'0 0.6
2017-Sep-24 18:00N 42°26' W 070°36'1 2.6
2017-Sep-24 17:30N 42°26' W 070°38'3 7.0
2017-Sep-24 17:00N 42°25' W 070°42'4 7.0
2017-Sep-24 16:30N 42°24' W 070°47'4 7.0
2017-Sep-24 16:00N 42°23' W 070°51'3 6.1
2017-Sep-24 15:30N 42°22' W 070°55'3 5.6
2017-Sep-24 15:00N 42°20' W 070°58'3 5.7
2017-Sep-24 14:30N 42°21' W 071°02'1 1.2
2017-Sep-24 14:00N 42°21' W 071°02'1 2.5
2017-Sep-24 13:30N 42°23' W 071°03'0 0.8
2017-Sep-24 13:00N 42°22' W 071°03'4 7.5
2017-Sep-24 12:30N 42°20' W 070°59'2 3.9
2017-Sep-24 12:01N 42°21' W 070°56'4 7.6
2017-Sep-24 11:30N 42°23' W 070°52'4 8.5
2017-Sep-24 11:00N 42°24' W 070°46'4 8.1
2017-Sep-24 10:30N 42°25' W 070°41'4 8.3
2017-Sep-24 10:00N 42°25' W 070°35'1 1.5
2017-Sep-24 09:30N 42°26' W 070°36'2 3.8
2017-Sep-24 09:00N 42°26' W 070°39'3 6.4
2017-Sep-24 08:30N 42°24' W 070°43'3 6.3
2017-Sep-24 08:00N 42°24' W 070°47'3 6.2
2017-Sep-24 07:30N 42°23' W 070°51'3 5.6
2017-Sep-24 07:00N 42°22' W 070°55'2 4.5
2017-Sep-24 06:31N 42°21' W 070°56'3 5.1
2017-Sep-24 06:00N 42°20' W 070°60'3 5.5
2017-Sep-24 05:30N 42°22' W 071°03'1 1.5
2017-Sep-24 05:00N 42°23' W 071°03'0 0.5
2017-Sep-24 04:30N 42°22' W 071°03'3 6.7
2017-Sep-24 04:00N 42°20' W 070°60'2 3.2
2017-Sep-24 03:30N 42°20' W 070°57'3 6.5
2017-Sep-24 03:00N 42°22' W 070°54'4 7.6
2017-Sep-24 02:30N 42°23' W 070°49'4 7.7
2017-Sep-24 02:00N 42°25' W 070°44'4 7.5
2017-Sep-24 01:30N 42°25' W 070°39'3 6.3
2017-Sep-24 01:00N 42°26' W 070°35'1 2.3
2017-Sep-24 00:30N 42°26' W 070°37'3 5.1
2017-Sep-24 00:00N 42°25' W 070°40'3 6.7
2017-Sep-23 23:30N 42°24' W 070°44'3 6.7
2017-Sep-23 23:00N 42°23' W 070°49'3 6.8
2017-Sep-23 22:30N 42°23' W 070°53'3 6.7
2017-Sep-23 22:00N 42°20' W 070°56'3 6.4
2017-Sep-23 21:30N 42°21' W 071°01'2 4.0
2017-Sep-23 21:01N 42°22' W 071°03'1 1.5
2017-Sep-23 20:30N 42°23' W 071°03'0 0.9
2017-Sep-23 20:00N 42°22' W 071°03'0 0.0
2017-Sep-22 02:00N 42°22' W 071°03'0 0.0
2017-Sep-22 01:30N 42°22' W 071°03'0 0.0
2017-Sep-22 01:00N 42°22' W 071°03'0 0.4
2017-Sep-22 00:31N 42°23' W 071°03'0 0.0
2017-Sep-22 00:00N 42°23' W 071°03'0 0.0
2017-Sep-21 23:30N 42°23' W 071°03'0 0.0
2017-Sep-21 23:00N 42°23' W 071°03'0 0.0
2017-Sep-21 22:30N 42°23' W 071°03'0 0.0
2017-Sep-21 22:00N 42°23' W 071°03'0 0.1
2017-Sep-21 21:30N 42°23' W 071°03'0 0.0
2017-Sep-21 21:01N 42°23' W 071°03'0 0.0
2017-Sep-21 20:30N 42°23' W 071°03'0 0.1
2017-Sep-21 20:00N 42°22' W 071°03'0 0.0
2017-Sep-21 19:30N 42°22' W 071°03'0 0.0
2017-Sep-21 19:00N 42°22' W 071°03'0 0.0
2017-Sep-21 18:30N 42°22' W 071°03'0 0.0
2017-Sep-21 18:00N 42°22' W 071°03'0 0.0
2017-Sep-21 17:30N 42°22' W 071°03'0 0.0
2017-Sep-21 17:00N 42°22' W 071°03'0 0.0
2017-Sep-21 16:30N 42°22' W 071°03'0 0.0
2017-Sep-21 16:00N 42°22' W 071°03'0 0.2
2017-Sep-21 15:30N 42°22' W 071°03'0 0.2
2017-Sep-21 15:00N 42°22' W 071°03'0 0.0
2017-Sep-21 14:30N 42°22' W 071°03'0 0.0
2017-Sep-21 14:00N 42°22' W 071°03'0 0.0
2017-Sep-21 13:30N 42°22' W 071°03'0 0.0
2017-Sep-21 13:00N 42°22' W 071°03'0 0.0
2017-Sep-21 12:30N 42°22' W 071°03'0 0.0
2017-Sep-21 12:00N 42°22' W 071°03'0 0.0
2017-Sep-21 11:30N 42°22' W 071°03'0 0.0
2017-Sep-21 11:00N 42°22' W 071°03'0 0.0
2017-Sep-21 10:30N 42°22' W 071°03'0 0.0
2017-Sep-21 10:00N 42°22' W 071°03'0 0.0
2017-Sep-21 09:30N 42°22' W 071°03'0 0.0
2017-Sep-21 09:00N 42°22' W 071°03'0 0.0
2017-Sep-21 08:30N 42°22' W 071°03'0 0.0
2017-Sep-21 08:00N 42°22' W 071°03'0 0.0
2017-Sep-21 07:30N 42°22' W 071°03'0 0.0
2017-Sep-21 07:00N 42°22' W 071°03'0 0.0
2017-Sep-21 06:30N 42°22' W 071°03'0 0.0
2017-Sep-21 06:00N 42°22' W 071°03'0 0.0
2017-Sep-21 05:30N 42°22' W 071°03'0 0.0
2017-Sep-21 05:00N 42°22' W 071°03'0 0.0
2017-Sep-21 04:30N 42°22' W 071°03'0 0.0
2017-Sep-21 04:00N 42°22' W 071°03'0 0.0
2017-Sep-21 03:30N 42°22' W 071°03'0 0.0
2017-Sep-21 03:00N 42°22' W 071°03'0 0.0
2017-Sep-21 02:30N 42°22' W 071°03'0 0.0
2017-Sep-21 02:00N 42°22' W 071°03'0 0.0
2017-Sep-21 01:30N 42°22' W 071°03'0 0.0
2017-Sep-21 01:00N 42°22' W 071°03'0 0.0
2017-Sep-21 00:30N 42°22' W 071°03'0 0.0
2017-Sep-21 00:00N 42°22' W 071°03'0 0.0
2017-Sep-20 23:30N 42°22' W 071°03'0 0.0
2017-Sep-20 23:00N 42°22' W 071°03'0 0.0
2017-Sep-20 22:30N 42°22' W 071°03'0 0.0
2017-Sep-20 22:00N 42°22' W 071°03'0 0.0
2017-Sep-20 21:30N 42°22' W 071°03'0 0.0
2017-Sep-20 21:00N 42°22' W 071°03'0 0.0
2017-Sep-20 20:30N 42°22' W 071°03'0 0.0
2017-Sep-20 20:00N 42°22' W 071°03'0 0.0
2017-Sep-20 19:30N 42°22' W 071°03'0 0.0
2017-Sep-20 19:00N 42°22' W 071°03'0 0.0
2017-Sep-20 18:30N 42°22' W 071°03'0 0.2
2017-Sep-20 18:00N 42°22' W 071°03'0 0.0
2017-Sep-20 17:30N 42°22' W 071°03'0 0.0
2017-Sep-20 17:00N 42°22' W 071°03'0 0.0
2017-Sep-20 16:30N 42°22' W 071°03'0 0.0
2017-Sep-20 16:00N 42°22' W 071°03'0 0.0
2017-Sep-20 15:30N 42°22' W 071°03'0 0.0
2017-Sep-20 15:00N 42°22' W 071°03'0 0.0
2017-Sep-20 14:00N 42°22' W 071°03'0 0.0
2017-Sep-20 13:30N 42°22' W 071°03'0 0.0
2017-Sep-20 13:00N 42°22' W 071°03'0 0.0
2017-Sep-20 12:30N 42°22' W 071°03'0 0.0
2017-Sep-20 12:00N 42°22' W 071°03'0 0.0
2017-Sep-20 11:30N 42°22' W 071°03'0 0.3
2017-Sep-20 11:00N 42°23' W 071°03'0 0.0
2017-Sep-20 10:30N 42°23' W 071°03'0 0.0
2017-Sep-20 10:01N 42°23' W 071°03'0 0.0
2017-Sep-20 09:31N 42°23' W 071°03'0 0.0
2017-Sep-20 09:00N 42°23' W 071°03'0 0.0
2017-Sep-20 08:30N 42°23' W 071°03'0 0.0
2017-Sep-20 08:00N 42°23' W 071°03'0 0.0
2017-Sep-20 07:30N 42°23' W 071°03'0 0.0
2017-Sep-20 07:00N 42°23' W 071°03'0 0.0
2017-Sep-20 06:30N 42°23' W 071°03'0 0.0
2017-Sep-20 06:00N 42°23' W 071°03'0 0.0
2017-Sep-20 05:30N 42°23' W 071°03'0 0.0
2017-Sep-20 05:00N 42°23' W 071°03'0 0.6
2017-Sep-20 04:30N 42°23' W 071°03'0 0.0
2017-Sep-20 04:00N 42°23' W 071°03'0 0.0
2017-Sep-20 03:30N 42°23' W 071°03'0 0.0
2017-Sep-20 03:00N 42°23' W 071°03'0 0.0
2017-Sep-20 02:30N 42°23' W 071°03'0 0.5
2017-Sep-20 02:01N 42°23' W 071°03'0 0.1
2017-Sep-20 01:30N 42°23' W 071°03'0 0.0
2017-Sep-20 01:00N 42°23' W 071°03'0 0.0
2017-Sep-20 00:30N 42°23' W 071°03'0 0.0
2017-Sep-20 00:00N 42°23' W 071°03'0 0.0
2017-Sep-19 23:30N 42°23' W 071°03'0 0.0
2017-Sep-19 23:00N 42°23' W 071°03'0 0.0
2017-Sep-19 22:30N 42°23' W 071°03'0 0.0
2017-Sep-19 22:00N 42°23' W 071°03'1 1.1
2017-Sep-19 21:30N 42°23' W 071°03'0 0.0
2017-Sep-19 21:00N 42°23' W 071°03'0 0.0
2017-Sep-19 20:30N 42°23' W 071°03'0 0.0
2017-Sep-19 20:00N 42°23' W 071°03'0 0.0
2017-Sep-19 19:30N 42°23' W 071°03'0 0.0
2017-Sep-19 19:00N 42°23' W 071°03'0 0.0
2017-Sep-19 18:31N 42°23' W 071°03'0 0.0
2017-Sep-19 18:00N 42°23' W 071°03'0 0.0
2017-Sep-19 17:30N 42°23' W 071°03'0 0.0
2017-Sep-19 17:00N 42°23' W 071°03'0 0.0
2017-Sep-19 16:30N 42°23' W 071°03'0 0.0
2017-Sep-19 16:00N 42°23' W 071°03'0 0.0
2017-Sep-19 15:30N 42°23' W 071°03'0 0.0
2017-Sep-19 15:00N 42°23' W 071°03'0 0.4
2017-Sep-19 14:30N 42°22' W 071°03'0 0.0
2017-Sep-19 14:00N 42°22' W 071°03'0 0.0
2017-Sep-19 13:30N 42°22' W 071°03'0 0.0
2017-Sep-19 13:00N 42°22' W 071°03'0 0.0
2017-Sep-19 12:30N 42°22' W 071°03'0 0.4
2017-Sep-19 12:00N 42°23' W 071°03'0 0.3
2017-Sep-19 11:30N 42°23' W 071°03'0 0.6
2017-Sep-19 11:01N 42°22' W 071°03'0 0.7
2017-Sep-19 10:30N 42°22' W 071°03'4 7.8
2017-Sep-19 10:00N 42°20' W 070°58'1 3.0
2017-Sep-19 09:30N 42°21' W 070°56'3 7.0
2017-Sep-19 09:00N 42°23' W 070°53'5 9.3
2017-Sep-19 08:30N 42°24' W 070°46'5 9.4
2017-Sep-19 08:00N 42°25' W 070°40'4 8.2
2017-Sep-19 07:30N 42°26' W 070°35'1 2.4
2017-Sep-19 07:00N 42°26' W 070°36'3 6.1
2017-Sep-19 06:31N 42°25' W 070°40'4 7.7
2017-Sep-19 06:00N 42°24' W 070°45'4 7.6
2017-Sep-19 05:30N 42°23' W 070°50'3 7.0
2017-Sep-19 05:00N 42°22' W 070°55'3 6.9
2017-Sep-19 04:30N 42°20' W 070°59'3 6.8
2017-Sep-19 04:00N 42°22' W 071°03'1 2.0
2017-Sep-19 03:30N 42°23' W 071°03'0 0.4
2017-Sep-19 03:00N 42°22' W 071°03'4 7.1
2017-Sep-19 02:30N 42°20' W 070°59'2 3.9
2017-Sep-19 02:00N 42°20' W 070°57'4 8.6
2017-Sep-19 01:30N 42°23' W 070°52'5 9.4
2017-Sep-19 01:00N 42°24' W 070°46'5 9.6
2017-Sep-19 00:30N 42°25' W 070°39'3 6.4
2017-Sep-19 00:00N 42°26' W 070°35'1 2.1
2017-Sep-18 23:30N 42°26' W 070°37'2 3.6
2017-Sep-18 23:00N 42°25' W 070°39'4 7.3
2017-Sep-18 22:30N 42°24' W 070°44'4 7.1
2017-Sep-18 22:00N 42°23' W 070°48'4 7.1
2017-Sep-18 21:30N 42°23' W 070°53'3 5.6
2017-Sep-18 21:00N 42°21' W 070°56'3 5.8
2017-Sep-18 20:30N 42°20' W 070°60'3 5.9
2017-Sep-18 20:00N 42°22' W 071°03'1 1.2
2017-Sep-18 19:30N 42°23' W 071°03'0 0.7
2017-Sep-18 19:00N 42°22' W 071°03'0 0.0
2017-Sep-18 18:30N 42°22' W 071°03'0 0.0
2017-Sep-18 18:00N 42°22' W 071°03'1 1.3
2017-Sep-18 17:31N 42°22' W 071°03'4 7.1
2017-Sep-18 17:00N 42°20' W 070°58'2 3.7
2017-Sep-18 16:30N 42°21' W 070°56'4 7.8
2017-Sep-18 16:00N 42°24' W 070°53'2 3.7
2017-Sep-18 15:30N 42°26' W 070°52'2 3.8
2017-Sep-18 15:00N 42°24' W 070°53'2 3.1
2017-Sep-18 14:31N 42°23' W 070°53'4 7.3
2017-Sep-18 14:00N 42°23' W 070°48'5 9.7
2017-Sep-18 13:30N 42°25' W 070°42'5 9.5
2017-Sep-18 13:00N 42°25' W 070°35'1 1.1
2017-Sep-18 12:30N 42°26' W 070°35'1 2.5
2017-Sep-18 12:00N 42°26' W 070°37'4 7.1
2017-Sep-18 11:30N 42°25' W 070°42'4 7.3
2017-Sep-18 11:00N 42°24' W 070°47'4 7.3
2017-Sep-18 10:30N 42°23' W 070°51'3 6.5
2017-Sep-18 10:00N 42°22' W 070°55'3 5.2
2017-Sep-18 09:30N 42°20' W 070°58'3 5.6
2017-Sep-18 09:00N 42°21' W 071°02'2 3.7
2017-Sep-18 08:30N 42°23' W 071°03'0 0.4
2017-Sep-18 08:01N 42°23' W 071°03'2 4.3
2017-Sep-18 07:31N 42°21' W 071°01'3 5.4
2017-Sep-18 07:00N 42°20' W 070°58'1 2.1
2017-Sep-18 06:30N 42°21' W 070°56'4 7.4
2017-Sep-18 06:01N 42°23' W 070°52'5 9.1
2017-Sep-18 05:30N 42°24' W 070°46'5 9.0
2017-Sep-18 05:00N 42°25' W 070°40'4 8.0
2017-Sep-18 04:30N 42°26' W 070°35'1 1.2
2017-Sep-18 04:00N 42°26' W 070°36'3 5.0
2017-Sep-18 03:30N 42°25' W 070°39'4 7.7
2017-Sep-18 03:00N 42°24' W 070°44'4 7.6
2017-Sep-18 02:30N 42°23' W 070°49'4 7.3
2017-Sep-18 02:00N 42°22' W 070°54'3 6.7
2017-Sep-18 01:30N 42°20' W 070°57'3 6.3
2017-Sep-18 01:00N 42°21' W 071°01'2 3.6
2017-Sep-18 00:30N 42°23' W 071°03'0 0.3
2017-Sep-18 00:00N 42°22' W 071°03'0 0.0
2017-Sep-17 23:30N 42°22' W 071°03'0 0.0
2017-Sep-17 23:00N 42°22' W 071°03'0 0.0
2017-Sep-17 22:30N 42°22' W 071°03'0 0.0
2017-Sep-17 22:00N 42°22' W 071°03'0 0.0
2017-Sep-17 21:30N 42°22' W 071°03'0 0.0
2017-Sep-17 21:00N 42°22' W 071°03'0 0.0
2017-Sep-17 20:30N 42°22' W 071°03'0 0.0
2017-Sep-17 20:00N 42°22' W 071°03'0 0.0
2017-Sep-17 19:30N 42°22' W 071°03'3 5.5
2017-Sep-17 19:00N 42°20' W 071°00'2 4.8
2017-Sep-17 18:30N 42°20' W 070°57'4 7.9
2017-Sep-17 18:00N 42°23' W 070°53'5 9.2
2017-Sep-17 17:30N 42°24' W 070°47'5 9.2
2017-Sep-17 17:00N 42°25' W 070°41'4 8.3
2017-Sep-17 16:30N 42°25' W 070°35'1 2.0
2017-Sep-17 16:00N 42°26' W 070°35'3 5.3
2017-Sep-17 15:30N 42°25' W 070°39'4 7.9
2017-Sep-17 15:00N 42°24' W 070°44'4 8.0
2017-Sep-17 14:30N 42°23' W 070°49'4 7.5
2017-Sep-17 14:00N 42°22' W 070°54'3 6.2
2017-Sep-17 13:30N 42°20' W 070°57'3 5.5
2017-Sep-17 13:01N 42°21' W 071°01'2 4.3
2017-Sep-17 12:30N 42°22' W 071°03'0 0.8
2017-Sep-17 12:01N 42°23' W 071°03'0 0.8
2017-Sep-17 11:30N 42°22' W 071°03'0 0.0
2017-Sep-17 11:00N 42°22' W 071°03'0 0.0
2017-Sep-17 10:30N 42°22' W 071°03'0 0.0
2017-Sep-17 10:00N 42°22' W 071°03'0 0.0
2017-Sep-17 09:30N 42°22' W 071°03'0 0.0
2017-Sep-17 09:01N 42°22' W 071°03'2 3.7
2017-Sep-17 08:30N 42°21' W 071°01'2 4.7
2017-Sep-17 08:00N 42°20' W 070°58'1 2.3
2017-Sep-17 07:30N 42°20' W 070°57'3 5.1
2017-Sep-17 07:00N 42°22' W 070°54'4 9.0
2017-Sep-17 06:30N 42°23' W 070°49'5 9.2
2017-Sep-17 05:59N 42°25' W 070°42'4 9.1
2017-Sep-17 05:30N 42°26' W 070°36'1 1.5
2017-Sep-17 05:00N 42°26' W 070°35'2 4.4
2017-Sep-17 04:30N 42°25' W 070°38'4 7.8
2017-Sep-17 04:00N 42°24' W 070°43'4 7.8
2017-Sep-17 03:30N 42°23' W 070°49'3 6.9
2017-Sep-17 03:00N 42°23' W 070°53'3 6.3
2017-Sep-17 02:30N 42°20' W 070°56'3 6.3
2017-Sep-17 02:00N 42°20' W 071°01'2 4.7
2017-Sep-17 01:30N 42°22' W 071°03'1 1.3
2017-Sep-17 01:00N 42°23' W 071°03'0 0.8
2017-Sep-17 00:30N 42°22' W 071°03'0 0.0
2017-Sep-17 00:00N 42°22' W 071°03'0 0.0
2017-Sep-16 23:30N 42°22' W 071°03'0 0.0
2017-Sep-16 23:00N 42°22' W 071°03'0 0.7
2017-Sep-16 22:31N 42°23' W 071°03'0 0.2
2017-Sep-16 22:00N 42°23' W 071°03'0 0.7
2017-Sep-16 21:30N 42°22' W 071°03'0 0.0
2017-Sep-16 21:00N 42°22' W 071°03'0 0.0
2017-Sep-16 20:30N 42°22' W 071°03'0 0.0
2017-Sep-16 20:00N 42°22' W 071°03'0 0.6
2017-Sep-16 19:31N 42°23' W 071°03'0 0.1
2017-Sep-16 19:00N 42°23' W 071°03'0 0.7
2017-Sep-16 18:30N 42°22' W 071°03'  

Dump ship's entire track history